Curran, Michigan
Current Conditions -  °F | °C
As of 5:54 AM on Sunday 21 Dec 2014 (Local Time) from KAPN Reporting Station
Overcast Overcast  
Wind Chill: 20°   Ceiling: 3300
Heat Index: 20°   Visibility: 10mi
Dew Point: 18°   Wind: 0mph
Humidity: 92%   Direction: NA
Pressure: 30.27"   Gusts: NA
Location:  44.71°N, 83.81°W
Report Text: KAPN 211054Z AUTO 00000KT 10SM OVC033 M07/M08 A3027 RMK AO2 SLP262 T10671078
Loading
Personal Weather Stations






























Interactive Weather Map New forecast layout! Learn more

10-Day Weather Forecast

Advertisements
Track Severe Weather on mobile